KQFW

Hongcheon

Hongcheon, South Korea
METAR KQFW 202350Z AUTO 35001KT 9999 BKN030 BKN050 24/21 A2964 RMK A02 TSNO
Observed Flight Rules
Aug-20 @ 23:50 UTC (19 minutes ago) Marginal Visual Flight Rules
Wind Visibility Clouds
350° at 1 knots 10,000+ meters
  • Broken at 3,000' AGL
  • Broken at 5,000' AGL
Temperatures Readings
Current 24°C / 75°F
Dewpoint 21°C / 70°F
Humidity 83%
Altimeter 29.64" Hg
Pressure 1004 hPa
METAR KQFW 202350Z AUTO 35001KT 9999 BKN030 BKN050 24/21 A2964 RMK A02 TSNO
Observed Flight Rules
Aug-20 @ 23:50 UTC
(19 minutes ago)
MVFR
Wind Visibility
350° at 1 knots 10,000+ meters
Clouds
  • Broken at 3,000' AGL
  • Broken at 5,000' AGL
Temperature Dewpoint
24°C / 75°F 21°C / 70°F
Humidity Altimeter Pressure
83% 29.64" Hg 1004 hPa